Terminal Aerodrome Forecast
Issued by NWS

Current Version | Previous Version | Text Only | Print | Product List | Glossary On
Versions: 1 2 3 4 5 6 7 8 9 10 11 12 13 14 15 16 17 18 19 20
927
FTUS46 KSTO 061603 AAE
TAFRDD
TAF AMD
KRDD 061603Z 0616/0712 00000KT P6SM -RA SCT004
     FM061700 35006KT P6SM VCSH OVC025
     FM062100 29006KT P6SM VCTS OVC025CB
     FM070600 VRB04KT P6SM OVC100=

USA.gov is the U.S. government's official web portal to all federal, state and local government web resources and services.